createdAt,value
2019-06-26T00:00:30.791Z,100749.63
2019-06-26T00:02:59.227Z,100749.15
2019-06-26T00:05:27.741Z,100749.37
2019-06-26T00:07:57.669Z,100748.02
2019-06-26T00:10:26.290Z,100753.47
2019-06-26T00:12:54.811Z,100749.67
2019-06-26T00:15:23.282Z,100756.73
2019-06-26T00:17:52.546Z,100757.27
2019-06-26T00:20:22.118Z,100769.28
2019-06-26T00:22:50.624Z,100767.14
2019-06-26T00:25:19.111Z,100773.36
2019-06-26T00:27:47.714Z,100772.25
2019-06-26T00:30:16.494Z,100772.23
2019-06-26T00:32:44.979Z,100772.73
2019-06-26T00:35:13.629Z,100773.20
2019-06-26T00:37:43.722Z,100769.09
2019-06-26T00:40:17.443Z,100769.63
2019-06-26T00:42:47.527Z,100770.60
2019-06-26T00:45:16.599Z,100773.63
2019-06-26T00:47:46.977Z,100767.23
2019-06-26T00:50:15.737Z,100773.03
2019-06-26T00:52:47.110Z,100775.71
2019-06-26T00:55:17.816Z,100780.58
2019-06-26T00:57:46.318Z,100777.00
2019-06-26T01:00:15.846Z,100783.02
2019-06-26T01:02:44.367Z,100783.14
2019-06-26T01:05:13.830Z,100788.48
2019-06-26T01:07:42.333Z,100786.52
2019-06-26T01:10:12.354Z,100789.09
2019-06-26T01:12:40.855Z,100780.28
2019-06-26T01:15:11.973Z,100782.92
2019-06-26T01:17:40.479Z,100781.96
2019-06-26T01:20:09.393Z,100782.03
2019-06-26T01:22:41.408Z,100783.64
2019-06-26T01:25:10.050Z,100785.44
2019-06-26T01:27:38.664Z,100790.44
2019-06-26T01:30:08.046Z,100794.92
2019-06-26T01:32:36.574Z,100799.97
2019-06-26T01:35:12.825Z,100798.55
2019-06-26T01:37:41.382Z,100799.20
2019-06-26T01:40:10.234Z,100805.09
2019-06-26T01:42:38.680Z,100804.80
2019-06-26T01:45:10.037Z,100806.16
2019-06-26T01:47:38.577Z,100806.03
2019-06-26T01:50:07.804Z,100806.27
2019-06-26T01:52:38.568Z,100814.08
2019-06-26T01:55:10.010Z,100817.71
2019-06-26T01:57:38.563Z,100819.05
2019-06-26T02:00:11.778Z,100827.92
2019-06-26T02:02:40.282Z,100831.66
2019-06-26T02:05:09.198Z,100836.60
2019-06-26T02:07:37.868Z,100841.53
2019-06-26T02:10:15.600Z,100837.05
2019-06-26T02:12:44.206Z,100832.76
2019-06-26T02:15:13.229Z,100841.81
2019-06-26T02:17:43.399Z,100842.70
2019-06-26T02:20:12.339Z,100844.05
2019-06-26T02:22:41.701Z,100846.13
2019-06-26T02:25:10.390Z,100848.48
2019-06-26T02:27:42.187Z,100854.00
2019-06-26T02:30:14.367Z,100850.33
2019-06-26T02:32:42.919Z,100849.41
2019-06-26T02:35:11.674Z,100850.00
2019-06-26T02:37:40.286Z,100848.02
2019-06-26T02:40:12.429Z,100853.81
2019-06-26T02:42:41.182Z,100858.83
2019-06-26T02:45:12.311Z,100849.50
2019-06-26T02:47:41.952Z,100849.65
2019-06-26T02:50:11.428Z,100855.47
2019-06-26T02:52:39.941Z,100855.92
2019-06-26T02:55:08.565Z,100858.02
2019-06-26T02:57:37.143Z,100841.88
2019-06-26T03:00:08.819Z,100863.73
2019-06-26T03:02:37.412Z,100858.58
2019-06-26T03:05:09.022Z,100871.23
2019-06-26T03:07:37.281Z,100865.78
2019-06-26T03:10:07.965Z,100868.94
2019-06-26T03:12:36.489Z,100873.55
2019-06-26T03:15:09.967Z,100882.21
2019-06-26T03:17:54.162Z,100883.88
2019-06-26T03:20:47.321Z,100885.81
2019-06-26T03:23:38.762Z,100888.32
2019-06-26T04:04:46.162Z,100924.91
2019-06-26T04:13:55.068Z,100935.10
2019-06-26T04:22:21.373Z,100947.28
2019-06-26T04:24:49.908Z,100947.62
2019-06-26T04:27:18.555Z,100953.44
2019-06-26T04:29:48.337Z,100949.74
2019-06-26T04:32:16.872Z,100953.33
2019-06-26T04:34:45.493Z,100962.59
2019-06-26T04:37:15.627Z,100957.41
2019-06-26T04:39:45.787Z,100960.59
2019-06-26T04:42:14.387Z,100960.97
2019-06-26T04:45:02.333Z,100965.84
2019-06-26T04:47:32.680Z,100965.77
2019-06-26T04:50:01.185Z,100966.83
2019-06-26T04:52:29.744Z,100975.11
2019-06-26T04:54:58.288Z,100969.32
2019-06-26T04:57:27.368Z,100974.53
2019-06-26T04:59:55.907Z,100972.04
2019-06-26T05:02:24.442Z,100978.12
2019-06-26T05:05:00.813Z,100968.66
2019-06-26T05:07:29.309Z,100982.31
2019-06-26T05:10:08.938Z,100985.15
2019-06-26T05:12:34.994Z,100980.64
2019-06-26T05:15:05.330Z,100977.25
2019-06-26T05:17:33.937Z,100979.05
2019-06-26T05:20:54.640Z,100976.73
2019-06-26T05:23:02.431Z,100979.98
2019-06-26T05:25:31.123Z,100981.05
2019-06-26T05:27:59.739Z,100992.77
2019-06-26T05:30:30.490Z,100990.09
2019-06-26T05:32:59.450Z,100998.30
2019-06-26T05:35:28.101Z,100999.19
2019-06-26T05:37:57.223Z,101002.15
2019-06-26T05:40:25.802Z,101007.37
2019-06-26T05:42:54.435Z,101008.83
2019-06-26T05:45:23.451Z,101009.52
2019-06-26T05:47:52.095Z,101004.96
2019-06-26T05:50:22.869Z,101012.64
2019-06-26T05:52:53.203Z,101014.09
2019-06-26T05:55:23.618Z,101012.20
2019-06-26T05:57:55.087Z,101017.13
2019-06-26T06:00:24.469Z,101017.15
2019-06-26T06:02:54.095Z,101014.09
2019-06-26T06:05:42.269Z,101022.61
2019-06-26T06:08:11.127Z,101021.58
2019-06-26T06:10:46.724Z,101034.14
2019-06-26T06:13:15.334Z,101033.64
2019-06-26T06:16:00.748Z,101034.95
2019-06-26T06:18:30.440Z,101036.16
2019-06-26T06:23:51.079Z,101043.41
2019-06-26T06:26:19.621Z,101047.82
2019-06-26T06:28:48.312Z,101053.23
2019-06-26T06:31:21.142Z,101058.14
2019-06-26T06:33:56.765Z,101054.33
2019-06-26T06:36:25.445Z,101058.43
2019-06-26T06:38:55.683Z,101064.88
2019-06-26T06:41:24.191Z,101059.98
2019-06-26T06:43:53.351Z,101058.44
2019-06-26T06:46:21.861Z,101062.31
2019-06-26T06:48:50.430Z,101074.42
2019-06-26T06:51:19.922Z,101067.31
2019-06-26T06:53:48.420Z,101070.38
2019-06-26T06:56:17.590Z,101075.69
2019-06-26T06:58:46.101Z,101065.19
2019-06-26T07:01:14.594Z,101074.90
2019-06-26T07:03:43.097Z,101077.37
2019-06-26T07:06:11.616Z,101071.25
2019-06-26T07:08:44.542Z,101076.50
2019-06-26T07:11:12.940Z,101076.38
2019-06-26T07:13:42.438Z,101075.88
2019-06-26T07:16:10.918Z,101083.77
2019-06-26T07:18:39.440Z,101085.70
2019-06-26T07:21:08.034Z,101090.73
2019-06-26T07:23:36.559Z,101089.55
2019-06-26T07:26:05.032Z,101096.58
2019-06-26T07:28:33.646Z,101099.62
2019-06-26T07:31:02.194Z,101098.19
2019-06-26T07:33:30.788Z,101098.93
2019-06-26T07:35:59.499Z,101099.38
2019-06-26T07:38:27.968Z,101101.42
2019-06-26T07:40:56.432Z,101101.92
2019-06-26T07:43:24.902Z,101101.37
2019-06-26T07:45:53.373Z,101100.25
2019-06-26T07:48:21.914Z,101110.80
2019-06-26T07:50:50.462Z,101114.00
2019-06-26T07:53:19.054Z,101110.63
2019-06-26T07:55:47.528Z,101113.16
2019-06-26T07:58:16.138Z,101113.28
2019-06-26T08:00:44.584Z,101116.59
2019-06-26T08:03:13.140Z,101119.80
2019-06-26T08:05:43.079Z,101125.78
2019-06-26T08:08:14.581Z,101115.58
2019-06-26T08:10:42.548Z,101129.72
2019-06-26T08:13:11.069Z,101132.72
2019-06-26T08:15:39.489Z,101132.02
2019-06-26T08:18:08.009Z,101138.58
2019-06-26T08:20:51.594Z,101139.08
2019-06-26T08:23:06.598Z,101138.34
2019-06-26T08:25:35.034Z,101143.88
2019-06-26T08:28:04.418Z,101138.95
2019-06-26T08:30:32.918Z,101141.72
2019-06-26T08:33:01.407Z,101135.01
2019-06-26T08:35:29.868Z,101144.19
2019-06-26T08:38:09.414Z,101142.60
2019-06-26T08:40:28.685Z,101156.61
2019-06-26T08:42:57.221Z,101143.95
2019-06-26T08:45:25.666Z,101144.26
2019-06-26T08:47:55.624Z,101138.49
2019-06-26T08:50:24.358Z,101143.71
2019-06-26T08:52:54.582Z,101145.63
2019-06-26T08:55:23.067Z,101151.36
2019-06-26T08:57:51.541Z,101145.89
2019-06-26T09:00:20.355Z,101152.75
2019-06-26T09:02:48.817Z,101153.56
2019-06-26T09:05:17.522Z,101163.25
2019-06-26T09:07:45.978Z,101156.36
2019-06-26T09:10:14.912Z,101159.00
2019-06-26T09:12:43.347Z,101162.52
2019-06-26T09:15:12.136Z,101168.10
2019-06-26T09:17:40.619Z,101164.84
2019-06-26T09:20:11.887Z,101169.19
2019-06-26T09:22:40.383Z,101171.64
2019-06-26T09:25:20.813Z,101168.51
2019-06-26T09:27:39.340Z,101174.14
2019-06-26T09:30:08.948Z,101181.52
2019-06-26T09:32:37.394Z,101176.66
2019-06-26T09:35:07.906Z,101172.77
2019-06-26T09:37:36.443Z,101179.52
2019-06-26T09:40:06.642Z,101182.30
2019-06-26T09:42:35.078Z,101185.40
2019-06-26T09:45:04.587Z,101182.09
2019-06-26T09:47:33.034Z,101189.84
2019-06-26T09:50:01.939Z,101177.77
2019-06-26T09:52:30.578Z,101193.61
2019-06-26T09:55:00.627Z,101189.70
2019-06-26T09:57:29.176Z,101189.12
2019-06-26T09:59:58.830Z,101195.67
2019-06-26T10:02:27.262Z,101198.94
2019-06-26T10:04:55.731Z,101188.19
2019-06-26T10:07:24.164Z,101191.64
2019-06-26T10:09:52.713Z,101196.67
2019-06-26T10:12:21.248Z,101196.00
2019-06-26T10:14:52.713Z,101194.34
2019-06-26T10:17:21.190Z,101188.07
2019-06-26T10:19:49.651Z,101187.43
2019-06-26T10:22:19.225Z,101182.69
2019-06-26T10:24:47.715Z,101184.36
2019-06-26T10:27:16.169Z,101195.02
2019-06-26T10:29:44.615Z,101190.53
2019-06-26T10:32:13.171Z,101196.13
2019-06-26T10:34:42.022Z,101189.59
2019-06-26T10:37:10.494Z,101195.73
2019-06-26T10:39:38.982Z,101196.19
2019-06-26T10:42:07.430Z,101178.86
2019-06-26T10:44:35.874Z,101197.11
2019-06-26T10:47:04.415Z,101196.55
2019-06-26T10:49:32.920Z,101201.27
2019-06-26T10:52:04.334Z,101190.28
2019-06-26T10:54:35.450Z,101187.95
2019-06-26T10:57:05.465Z,101181.30
2019-06-26T10:59:35.287Z,101181.06
2019-06-26T11:02:18.791Z,101180.20
2019-06-26T11:04:57.278Z,101174.20
2019-06-26T11:07:31.455Z,101173.00
2019-06-26T11:10:01.686Z,101178.86
2019-06-26T11:12:33.577Z,101177.17
2019-06-26T11:15:07.639Z,101175.84
2019-06-26T11:17:39.530Z,101172.56
2019-06-26T11:20:36.533Z,101167.34
2019-06-26T11:23:15.982Z,101172.77
2019-06-26T11:25:47.397Z,101174.66
2019-06-26T11:28:24.567Z,101171.72
2019-06-26T11:30:55.526Z,101179.27
2019-06-26T11:33:37.462Z,101178.75
2019-06-26T11:36:07.947Z,101170.13
2019-06-26T11:38:38.963Z,101183.09
2019-06-26T11:41:10.465Z,101184.91
2019-06-26T11:43:48.811Z,101180.41
2019-06-26T11:46:33.528Z,101181.44
2019-06-26T11:49:08.144Z,101188.30
2019-06-26T11:51:32.360Z,101185.84
2019-06-26T11:54:01.028Z,101187.73
2019-06-26T11:56:44.114Z,101176.74
2019-06-26T11:59:14.213Z,101181.59
2019-06-26T12:01:43.113Z,101185.05
2019-06-26T12:07:07.022Z,101175.13
2019-06-26T12:09:45.250Z,101189.16
2019-06-26T12:12:37.096Z,101188.53
2019-06-26T12:15:14.405Z,101192.78
2019-06-26T12:18:01.471Z,101193.13
2019-06-26T12:20:32.849Z,101189.66
2019-06-26T12:23:04.356Z,101201.55
2019-06-26T12:28:31.883Z,101196.05
2019-06-26T12:31:07.541Z,101194.30
2019-06-26T12:33:38.121Z,101190.29
2019-06-26T12:36:11.269Z,101197.15
2019-06-26T12:38:59.529Z,101189.33
2019-06-26T12:41:36.359Z,101194.16
2019-06-26T12:44:10.820Z,101192.17
2019-06-26T12:47:00.070Z,101188.88
2019-06-26T12:50:04.010Z,101186.02
2019-06-26T12:52:48.540Z,101176.33
2019-06-26T12:55:27.496Z,101180.09
2019-06-26T12:58:19.716Z,101175.73
2019-06-26T13:00:37.812Z,101178.80
2019-06-26T13:03:09.229Z,101180.41
2019-06-26T13:05:39.399Z,101189.89
2019-06-26T13:08:13.084Z,101182.45
2019-06-26T13:10:49.409Z,101176.41
2019-06-26T13:13:16.044Z,101185.91
2019-06-26T13:15:52.847Z,101181.34
2019-06-26T13:18:23.563Z,101177.73
2019-06-26T13:20:53.702Z,101176.68
2019-06-26T13:23:29.432Z,101176.77
2019-06-26T13:26:09.658Z,101178.23
2019-06-26T13:28:42.821Z,101180.13
2019-06-26T13:31:11.344Z,101175.19
2019-06-26T13:33:44.271Z,101175.17
2019-06-26T13:36:18.517Z,101179.11
2019-06-26T13:38:47.030Z,101173.45
2019-06-26T13:41:15.576Z,101184.80
2019-06-26T13:43:50.800Z,101184.00
2019-06-26T13:46:24.333Z,101188.44
2019-06-26T13:49:03.203Z,101181.78
2019-06-26T13:51:35.489Z,101186.75
2019-06-26T13:54:05.792Z,101185.41
2019-06-26T13:56:55.287Z,101191.89
2019-06-26T13:59:23.847Z,101181.72
2019-06-26T14:02:13.404Z,101192.58
2019-06-26T14:08:06.479Z,101184.87
2019-06-26T14:14:56.126Z,101189.36
2019-06-26T14:17:34.347Z,101189.36
2019-06-26T14:19:54.793Z,101194.05
2019-06-26T14:22:52.651Z,101185.72
2019-06-26T14:31:22.062Z,101185.32
2019-06-26T14:34:42.707Z,101185.32
2019-06-26T14:37:14.768Z,101186.88
2019-06-26T14:39:49.340Z,101192.87
2019-06-26T14:42:25.736Z,101185.95
2019-06-26T14:45:00.299Z,101185.95
2019-06-26T14:50:39.523Z,101190.71
2019-06-26T14:53:22.570Z,101196.59
2019-06-26T14:55:53.320Z,101196.49
2019-06-26T14:58:36.536Z,101204.36
2019-06-26T15:07:30.798Z,101205.78
2019-06-26T15:10:23.091Z,101203.11
2019-06-26T15:12:59.712Z,101194.84
2019-06-26T15:15:49.800Z,101206.64
2019-06-26T15:18:24.250Z,101208.57
2019-06-26T15:26:44.302Z,101208.27
2019-06-26T15:32:52.287Z,101203.31
2019-06-26T15:39:03.393Z,101195.09
2019-06-26T15:44:27.496Z,101191.73
2019-06-26T15:47:00.755Z,101189.26
2019-06-26T15:52:43.874Z,101191.17
2019-06-26T15:55:20.874Z,101189.80
2019-06-26T15:57:55.432Z,101200.70
2019-06-26T16:00:36.398Z,101200.98
2019-06-26T16:03:29.475Z,101206.41
2019-06-26T16:06:08.465Z,101207.23
2019-06-26T16:11:53.981Z,101211.89
2019-06-26T16:15:11.079Z,101217.70
2019-06-26T16:20:06.444Z,101213.63
2019-06-26T16:25:24.627Z,101226.11
2019-06-26T16:28:05.135Z,101229.52
2019-06-26T16:30:34.586Z,101227.52
2019-06-26T16:33:13.876Z,101219.84
2019-06-26T16:35:46.215Z,101222.50
2019-06-26T16:44:33.699Z,101229.96
2019-06-26T16:46:59.220Z,101228.84
2019-06-26T16:49:30.937Z,101224.13
2019-06-26T16:52:06.064Z,101224.22
2019-06-26T16:54:47.254Z,101229.72
2019-06-26T16:58:30.655Z,101221.97
2019-06-26T17:03:04.002Z,101235.29
2019-06-26T17:22:40.253Z,101248.65
2019-06-26T17:25:09.649Z,101258.59
2019-06-26T17:27:38.119Z,101258.24
2019-06-26T17:30:07.988Z,101256.84
2019-06-26T17:32:36.421Z,101267.27
2019-06-26T17:35:07.631Z,101269.44
2019-06-26T17:37:38.947Z,101264.40
2019-06-26T17:40:08.537Z,101274.72
2019-06-26T17:42:36.988Z,101269.02
2019-06-26T17:45:09.808Z,101277.34
2019-06-26T17:47:38.344Z,101269.68
2019-06-26T17:50:07.605Z,101273.89
2019-06-26T17:52:38.502Z,101274.48
2019-06-26T17:55:10.179Z,101274.28
2019-06-26T17:57:38.722Z,101276.11
2019-06-26T18:00:08.550Z,101271.91
2019-06-26T18:02:37.010Z,101273.86
2019-06-26T18:05:06.084Z,101282.35
2019-06-26T18:07:34.587Z,101285.77
2019-06-26T18:10:03.758Z,101281.81
2019-06-26T18:12:35.229Z,101290.14
2019-06-26T18:15:07.614Z,101289.34
2019-06-26T18:17:36.099Z,101295.75
2019-06-26T18:20:06.499Z,101298.66
2019-06-26T18:22:35.158Z,101303.59
2019-06-26T18:25:04.372Z,101303.12
2019-06-26T18:27:32.894Z,101310.03
2019-06-26T18:30:04.293Z,101311.19
2019-06-26T18:32:32.781Z,101314.98
2019-06-26T18:35:01.221Z,101317.11
2019-06-26T18:37:29.681Z,101320.96
2019-06-26T18:39:58.141Z,101320.75
2019-06-26T18:42:26.700Z,101318.09
2019-06-26T18:44:55.172Z,101314.00
2019-06-26T18:47:23.615Z,101323.66
2019-06-26T18:49:52.095Z,101331.84
2019-06-26T18:52:20.556Z,101331.73
2019-06-26T18:54:49.111Z,101329.34
2019-06-26T18:57:18.932Z,101332.45
2019-06-26T18:59:49.377Z,101332.17
2019-06-26T19:02:19.486Z,101332.09
2019-06-26T19:04:49.622Z,101328.78
2019-06-26T19:07:19.146Z,101335.22
2019-06-26T19:09:49.249Z,101338.64
2019-06-26T19:12:20.557Z,101342.20
2019-06-26T19:14:50.598Z,101346.91
2019-06-26T19:17:19.082Z,101344.14
2019-06-26T19:19:49.032Z,101351.77
2019-06-26T19:22:17.593Z,101350.77
2019-06-26T19:24:47.744Z,101356.70
2019-06-26T19:27:20.489Z,101357.47
2019-06-26T19:29:49.066Z,101353.52
2019-06-26T19:32:17.682Z,101361.85
2019-06-26T19:34:46.248Z,101364.73
2019-06-26T19:37:14.875Z,101369.43
2019-06-26T19:39:43.403Z,101368.06
2019-06-26T19:42:11.953Z,101375.54
2019-06-26T19:44:40.582Z,101374.78
2019-06-26T19:47:09.190Z,101388.67
2019-06-26T19:49:41.306Z,101396.05
2019-06-26T19:52:09.756Z,101390.52
2019-06-26T19:54:38.440Z,101390.59
2019-06-26T19:57:06.955Z,101394.00
2019-06-26T19:59:35.461Z,101398.69
2019-06-26T20:02:06.197Z,101403.47
2019-06-26T20:04:34.578Z,101405.38
2019-06-26T20:07:03.108Z,101412.39
2019-06-26T20:09:44.910Z,101406.70
2019-06-26T20:12:23.081Z,101421.77
2019-06-26T20:14:58.587Z,101421.84
2019-06-26T20:18:18.199Z,101414.86
2019-06-26T20:20:09.901Z,101421.50
2019-06-26T20:22:56.180Z,101423.37
2019-06-26T20:25:45.075Z,101420.40
2019-06-26T20:28:21.947Z,101421.16
2019-06-26T20:31:14.864Z,101423.07
2019-06-26T20:36:44.018Z,101423.73
2019-06-26T20:39:12.632Z,101429.27
2019-06-26T20:41:41.302Z,101433.83
2019-06-26T20:44:11.611Z,101438.28
2019-06-26T20:46:43.004Z,101431.08
2019-06-26T20:49:11.530Z,101434.42
2019-06-26T20:51:43.065Z,101437.45
2019-06-26T20:54:11.591Z,101435.03
2019-06-26T20:56:45.172Z,101438.26
2019-06-26T20:59:13.694Z,101435.50
2019-06-26T21:01:42.242Z,101448.19
2019-06-26T21:04:27.940Z,101439.38
2019-06-26T21:06:56.385Z,101439.05
2019-06-26T21:09:37.059Z,101437.69
2019-06-26T21:12:19.153Z,101440.95
2019-06-26T21:14:46.697Z,101445.44
2019-06-26T21:17:15.155Z,101454.98
2019-06-26T21:19:43.625Z,101457.16
2019-06-26T21:22:12.082Z,101455.34
2019-06-26T21:24:40.584Z,101455.59
2019-06-26T21:27:09.021Z,101453.81
2019-06-26T21:29:37.605Z,101457.19
2019-06-26T21:32:07.619Z,101462.12
2019-06-26T21:34:37.190Z,101464.20
2019-06-26T21:37:05.736Z,101466.55
2019-06-26T21:39:34.256Z,101474.68
2019-06-26T21:42:02.806Z,101469.47
2019-06-26T21:44:31.351Z,101473.25
2019-06-26T21:47:02.492Z,101470.06
2019-06-26T21:49:30.990Z,101474.58
2019-06-26T21:51:59.419Z,101469.85
2019-06-26T21:54:27.905Z,101471.09
2019-06-26T21:56:56.417Z,101477.00
2019-06-26T21:59:24.867Z,101486.31
2019-06-26T22:01:53.539Z,101486.69
2019-06-26T22:04:22.154Z,101494.06
2019-06-26T22:06:50.740Z,101493.98
2019-06-26T22:09:19.261Z,101492.86
2019-06-26T22:11:47.825Z,101490.16
2019-06-26T22:14:16.373Z,101493.16
2019-06-26T22:16:44.895Z,101504.64
2019-06-26T22:19:13.391Z,101505.03
2019-06-26T22:21:41.914Z,101494.16
2019-06-26T22:24:10.504Z,101505.23
2019-06-26T22:26:38.911Z,101509.08
2019-06-26T22:29:07.454Z,101500.69
2019-06-26T22:31:35.943Z,101503.84
2019-06-26T22:34:04.540Z,101513.45
2019-06-26T22:36:33.000Z,101514.30
2019-06-26T22:39:01.489Z,101517.29
2019-06-26T22:41:29.937Z,101523.75
2019-06-26T22:43:58.406Z,101523.41
2019-06-26T22:46:26.915Z,101530.62
2019-06-26T22:48:57.010Z,101529.98
2019-06-26T22:51:25.470Z,101523.53
2019-06-26T22:53:56.819Z,101525.44
2019-06-26T22:56:25.775Z,101529.73
2019-06-26T22:58:54.246Z,101537.52
2019-06-26T23:01:22.752Z,101532.14
2019-06-26T23:03:51.283Z,101538.98
2019-06-26T23:06:19.806Z,101540.49
2019-06-26T23:08:48.289Z,101534.21
2019-06-26T23:11:16.788Z,101526.59
2019-06-26T23:13:45.287Z,101520.45
2019-06-26T23:16:13.754Z,101526.81
2019-06-26T23:18:42.239Z,101525.61
2019-06-26T23:21:10.683Z,101530.84
2019-06-26T23:23:39.139Z,101532.22
2019-06-26T23:26:22.937Z,101532.63
2019-06-26T23:28:37.933Z,101531.92
2019-06-26T23:31:06.474Z,101528.55
2019-06-26T23:33:34.947Z,101529.09
2019-06-26T23:36:03.402Z,101532.63
2019-06-26T23:38:31.885Z,101534.91
2019-06-26T23:41:00.364Z,101541.56
2019-06-26T23:43:28.808Z,101533.34
2019-06-26T23:45:57.333Z,101535.82
2019-06-26T23:48:25.812Z,101532.24
2019-06-26T23:50:54.345Z,101541.11
2019-06-26T23:53:22.833Z,101538.73
2019-06-26T23:56:06.572Z,101548.28
2019-06-26T23:58:34.996Z,101545.45
